Harrisburg International Airport (MDT/KMDT)

Map

Destinations

Information

Location
Harrisburg, PA
Local Time
21:00 / 9:00 pm
GMT Time
02:00 / 2:00 am
Gates
Unassigned
No FAA reported delays
METAR KMDT 250156Z 08003KT 10SM CLR 04/M02 A2993 RMK AO2 SLP137 T00391017
TAF KMDT 242353Z 2500/2524 04003KT P6SM SKC FM251100 VRB02KT P6SM SCT150